TAF Text Data
IDs:
Format:
Raw Decoded Include METAR

Data at: 0251 UTC 27 Jun 2019

TAF for:KAUS (Austin/Bergstrom Int, TX, US) issued at 0220 UTC 27 Jun 2019
Text:KAUS 270220Z 2702/2806 10006KT P6SM SCT250
Forecast period:0200 to 0800 UTC 27 June 2019
Forecast type:FROM: standard forecast or significant change
Winds:from the E (100 degrees) at 7 MPH (6 knots; 3.1 m/s)
Visibility:6 or more sm (10+ km)
Ceiling:at least 12,000 feet AGL
Clouds: scattered clouds at 25000 feet AGL
Text:FM270800 VRB03KT P6SM BKN012
Forecast period:0800 to 1600 UTC 27 June 2019
Forecast type:FROM: standard forecast or significant change
Winds:variable direction winds at 3 MPH (3 knots; 1.5 m/s)
Visibility:6 or more sm (10+ km)
Ceiling:1200 feet AGL
Clouds: broken clouds at 1200 feet AGL
Text:FM271600 17007KT P6SM BKN025
Forecast period:1600 to 1800 UTC 27 June 2019
Forecast type:FROM: standard forecast or significant change
Winds:from the S (170 degrees) at 8 MPH (7 knots; 3.6 m/s)
Visibility:6 or more sm (10+ km)
Ceiling:2500 feet AGL
Clouds: broken clouds at 2500 feet AGL
Text:FM271800 15010KT P6SM SCT035
Forecast period:1800 UTC 27 June 2019 to 0600 UTC 28 June 2019
Forecast type:FROM: standard forecast or significant change
Winds:from the SSE (150 degrees) at 12 MPH (10 knots; 5.1 m/s)
Visibility:6 or more sm (10+ km)
Ceiling:at least 12,000 feet AGL
Clouds: scattered clouds at 3500 feet AGL